Etusivu
METAR-TAF:

METAR-TAF

Lentoasemat :

Mount Pleasant Regional Airport

Mount Pleasant, Texas, Yhdysvallat

Leveyspiiri: 33-05-43N, Pituuspiiri: 094-57-41W, korkeus merenpinnasta: 111 m

Tämänhetkinen sää

Tämä raportti tehtiin 16 minuuttia sitten, kello 02.15 UTC
tyyntä
Lämpötila 10°C
Kosteus 57%
Ilmanpaine 1013 hPa
Näkyvyys: 16.1 km
selkeää

METAR: KOSA 190215Z AUTO 00000KT 10SM CLR 10/02 A2990 RMK AO1 T01020023

Aika: 20:31 (02:31 UTC)


TAF: puuttuu

Säähavainnot ja -ennusteet yli 4000 lentoasemalta (METAR- ja TAF-raportit).

Käytössä olevat sääasemat on merkitty karttaan keltaisilla ja punaisilla pisteillä.

Aseta hiiri pisteen päälle nähdäksesi sääaseman nimen.

Klikkaa sitten nähdäksesi säähavainnot ja -ennusteet.

Kartan vaihtaminen: klikkaa mustalla rastilla varustettuja vihreitä pisteitä, niin voit zoomata sisään; viivalla varustettua vihreää pistettä, niin voit zoomata ulos tai vihreitä nuolia, niin pääset viereisille kartoille.


METAR-TAF: